RYR69LP EPMO-LEPA
Flight info
| Callsign | RYR69LP |
|---|---|
| Flight time | N/A |
| Altitude | 34000 |
| Route | EVINA DCT NAVUR N744 TUSIN DCT MIKOV DCT DETSA/N0448F350 DCT VOG DCT GEKBA/N0428F290 DCT VAMTU DCT KOLON DCT GANGU DCT PADKO DCT VATIR N852 VERSO L129 LUNIK |
| Aircraft | B738/M-SDE2E3FGHIRWXY/LB1 |
Departure
| Time | 2026-04-25 16:55 |
|---|---|
| Airport | Warsaw Modlin Airport (EPMO) |
Arrival
| Time | N/A |
|---|---|
| Airport | Palma de Mallorca Airport (LEPA) |
| Time | Latitude | Longitude | Altitude | Speed | Heading |
|---|---|---|---|---|---|
| 2026-04-25 16:39 | 52.44741 | 20.65181 | 334 ft | 0 kts | 206° |
| 2026-04-25 16:48 | 52.44751 | 20.65189 | 332 ft | 4 kts | 183° |
| 2026-04-25 16:48 | 52.44769 | 20.65175 | 334 ft | 4 kts | 116° |
| 2026-04-25 16:49 | 52.44777 | 20.65134 | 336 ft | 4 kts | 94° |
| 2026-04-25 16:49 | 52.44777 | 20.65111 | 332 ft | 1 kts | 81° |
| 2026-04-25 16:51 | 52.44780 | 20.65142 | 333 ft | 8 kts | 81° |
| 2026-04-25 16:51 | 52.44783 | 20.65181 | 334 ft | 12 kts | 81° |
| 2026-04-25 16:52 | 52.44807 | 20.65441 | 336 ft | 18 kts | 81° |
| 2026-04-25 16:52 | 52.44831 | 20.65699 | 337 ft | 29 kts | 83° |
| 2026-04-25 16:52 | 52.44862 | 20.66023 | 337 ft | 28 kts | 81° |
| 2026-04-25 16:52 | 52.44892 | 20.66328 | 337 ft | 26 kts | 81° |
| 2026-04-25 16:53 | 52.44944 | 20.66881 | 337 ft | 23 kts | 82° |
| 2026-04-25 16:53 | 52.45022 | 20.67073 | 337 ft | 22 kts | 6° |
| 2026-04-25 16:53 | 52.45175 | 20.67040 | 335 ft | 22 kts | 350° |
| 2026-04-25 16:54 | 52.45282 | 20.66938 | 337 ft | 15 kts | 285° |
| 2026-04-25 16:54 | 52.45262 | 20.66695 | 335 ft | 44 kts | 261° |
| 2026-04-25 16:54 | 52.45182 | 20.65833 | 334 ft | 106 kts | 261° |
| 2026-04-25 16:54 | 52.45039 | 20.64365 | 381 ft | 152 kts | 259° |
| 2026-04-25 16:55 | 52.44861 | 20.62540 | 880 ft | 167 kts | 261° |
| 2026-04-25 16:55 | 52.44718 | 20.60577 | 1528 ft | 178 kts | 265° |
| 2026-04-25 16:55 | 52.44512 | 20.58560 | 2209 ft | 181 kts | 263° |
| 2026-04-25 16:55 | 52.44294 | 20.56520 | 2810 ft | 184 kts | 261° |
| 2026-04-25 16:56 | 52.43633 | 20.54591 | 2970 ft | 220 kts | 223° |
| 2026-04-25 16:56 | 52.42081 | 20.53651 | 3263 ft | 257 kts | 192° |